createdAt,value
2017-05-08T00:00:57.444Z,0.74
2017-05-08T00:03:25.041Z,1.08
2017-05-08T00:05:52.237Z,0.96
2017-05-08T00:08:20.848Z,1.04
2017-05-08T00:10:48.104Z,0.70
2017-05-08T00:13:15.309Z,0.90
2017-05-08T00:15:42.817Z,0.60
2017-05-08T00:18:10.044Z,0.80
2017-05-08T00:20:37.247Z,0.84
2017-05-08T00:23:05.600Z,0.74
2017-05-08T00:25:33.543Z,0.70
2017-05-08T00:28:01.736Z,0.90
2017-05-08T00:30:29.312Z,0.82
2017-05-08T00:32:56.493Z,0.72
2017-05-08T00:35:23.706Z,0.64
2017-05-08T00:37:51.987Z,0.68
2017-05-08T00:40:19.949Z,0.60
2017-05-08T00:42:47.881Z,0.90
2017-05-08T00:45:16.293Z,0.70
2017-05-08T00:47:44.253Z,0.78
2017-05-08T00:50:11.439Z,0.68
2017-05-08T00:52:38.979Z,0.90
2017-05-08T00:55:06.900Z,0.80
2017-05-08T00:57:34.077Z,0.90
2017-05-08T01:00:01.577Z,0.78
2017-05-08T01:02:28.758Z,0.80
2017-05-08T01:04:55.937Z,0.70
2017-05-08T01:07:24.464Z,0.88
2017-05-08T01:09:51.652Z,0.76
2017-05-08T01:12:18.823Z,0.60
2017-05-08T01:14:46.352Z,0.70
2017-05-08T01:17:13.527Z,0.80
2017-05-08T01:19:40.723Z,0.58
2017-05-08T01:22:09.184Z,0.60
2017-05-08T01:24:37.097Z,0.40
2017-05-08T01:27:04.281Z,0.72
2017-05-08T01:29:33.293Z,0.60
2017-05-08T01:32:00.528Z,0.68
2017-05-08T01:34:28.480Z,0.50
2017-05-08T01:36:56.072Z,0.50
2017-05-08T01:39:23.275Z,0.60
2017-05-08T01:41:50.433Z,0.40
2017-05-08T01:44:18.830Z,0.30
2017-05-08T01:46:46.741Z,0.54
2017-05-08T01:49:14.845Z,0.50
2017-05-08T01:51:42.297Z,0.64
2017-05-08T01:54:10.441Z,0.40
2017-05-08T01:56:37.598Z,0.60
2017-05-08T01:59:05.086Z,0.40
2017-05-08T02:01:32.222Z,0.30
2017-05-08T02:03:59.382Z,0.34
2017-05-08T02:06:26.834Z,0.30
2017-05-08T02:08:53.983Z,0.38
2017-05-08T02:11:21.122Z,0.30
2017-05-08T02:13:48.586Z,0.40
2017-05-08T02:16:15.721Z,0.50
2017-05-08T02:18:42.879Z,0.40
2017-05-08T02:21:10.349Z,0.32
2017-05-08T02:23:37.479Z,0.30
2017-05-08T02:26:04.621Z,0.30
2017-05-08T02:28:32.094Z,0.30
2017-05-08T02:30:59.230Z,0.40
2017-05-08T02:33:26.389Z,0.44
2017-05-08T02:35:53.850Z,0.30
2017-05-08T02:38:21.009Z,0.44
2017-05-08T02:40:48.142Z,0.30
2017-05-08T02:43:16.336Z,0.34
2017-05-08T02:45:43.534Z,0.30
2017-05-08T02:48:10.695Z,0.20
2017-05-08T02:50:38.186Z,0.34
2017-05-08T02:53:05.326Z,0.30
2017-05-08T02:55:32.498Z,0.30
2017-05-08T02:58:00.761Z,0.30
2017-05-08T03:00:27.882Z,0.30
2017-05-08T03:02:55.070Z,0.30
2017-05-08T03:05:22.500Z,0.30
2017-05-08T03:07:49.625Z,0.30
2017-05-08T03:10:16.749Z,0.30
2017-05-08T03:12:44.986Z,0.30
2017-05-08T03:15:12.145Z,0.32
2017-05-08T03:17:39.280Z,0.30
2017-05-08T03:20:06.741Z,0.34
2017-05-08T03:22:33.869Z,0.20
2017-05-08T03:25:02.063Z,0.24
2017-05-08T03:27:29.526Z,0.20
2017-05-08T03:29:56.721Z,0.30
2017-05-08T03:32:23.885Z,0.20
2017-05-08T03:34:51.406Z,0.30
2017-05-08T03:37:18.541Z,0.30
2017-05-08T03:39:45.710Z,0.30
2017-05-08T03:42:14.009Z,0.20
2017-05-08T03:44:41.165Z,0.40
2017-05-08T03:47:08.313Z,0.40
2017-05-08T03:49:35.805Z,0.30
2017-05-08T03:52:05.266Z,0.20
2017-05-08T03:54:33.233Z,0.20
2017-05-08T03:57:00.746Z,0.30
2017-05-08T03:59:27.882Z,0.20
2017-05-08T04:01:55.172Z,0.30
2017-05-08T04:04:22.693Z,0.20
2017-05-08T04:06:49.866Z,0.20
2017-05-08T04:09:17.009Z,0.20
2017-05-08T04:11:44.453Z,0.24
2017-05-08T04:14:12.606Z,0.20
2017-05-08T04:16:39.745Z,0.24
2017-05-08T04:19:07.990Z,0.24
2017-05-08T04:21:35.870Z,0.30
2017-05-08T04:24:03.005Z,0.20
2017-05-08T04:26:31.194Z,0.20
2017-05-08T04:28:58.354Z,0.28
2017-05-08T04:31:25.487Z,0.30
2017-05-08T04:33:53.937Z,0.20
2017-05-08T04:36:22.618Z,0.30
2017-05-08T04:38:49.770Z,0.26
2017-05-08T04:41:17.981Z,0.20
2017-05-08T04:43:45.557Z,0.30
2017-05-08T04:46:13.980Z,0.32
2017-05-08T04:48:44.581Z,0.30
2017-05-08T04:51:11.717Z,0.20
2017-05-08T04:53:38.869Z,0.30
2017-05-08T04:56:06.286Z,0.30
2017-05-08T04:58:34.165Z,0.22
2017-05-08T05:01:01.319Z,0.58
2017-05-08T05:03:28.819Z,0.28
2017-05-08T05:05:55.958Z,0.20
2017-05-08T05:08:23.103Z,0.20
2017-05-08T05:10:50.557Z,0.30
2017-05-08T05:13:17.694Z,0.20
2017-05-08T05:15:44.833Z,0.30
2017-05-08T05:18:12.265Z,0.40
2017-05-08T05:20:40.139Z,0.30
2017-05-08T05:23:08.174Z,0.30
2017-05-08T05:25:36.442Z,0.30
2017-05-08T05:28:03.582Z,0.20
2017-05-08T05:30:30.718Z,0.30
2017-05-08T05:32:58.190Z,0.30
2017-05-08T05:35:25.403Z,0.26
2017-05-08T05:37:52.543Z,0.30
2017-05-08T05:40:20.918Z,0.20
2017-05-08T05:42:48.805Z,0.30
2017-05-08T05:45:15.978Z,0.22
2017-05-08T05:47:44.241Z,0.50
2017-05-08T05:50:11.401Z,0.40
2017-05-08T05:52:38.534Z,0.42
2017-05-08T05:55:06.026Z,0.44
2017-05-08T05:57:33.173Z,0.56
2017-05-08T06:00:00.309Z,0.42
2017-05-08T06:02:27.773Z,0.48
2017-05-08T06:04:54.909Z,0.50
2017-05-08T06:07:22.040Z,0.50
2017-05-08T06:09:50.554Z,0.62
2017-05-08T06:12:17.686Z,0.50
2017-05-08T06:14:44.830Z,0.58
2017-05-08T06:17:13.094Z,0.70
2017-05-08T06:19:40.246Z,0.70
2017-05-08T06:22:07.403Z,0.90
2017-05-08T06:24:34.877Z,0.62
2017-05-08T06:27:02.137Z,0.80
2017-05-08T06:29:29.301Z,0.68
2017-05-08T06:31:56.838Z,0.84
2017-05-08T06:34:23.971Z,0.58
2017-05-08T06:36:51.101Z,0.74
2017-05-08T06:39:18.593Z,0.78
2017-05-08T06:41:45.726Z,0.80
2017-05-08T06:44:12.878Z,2.34
2017-05-08T06:46:41.289Z,1.88
2017-05-08T06:49:08.429Z,1.16
2017-05-08T06:51:35.573Z,1.48
2017-05-08T06:54:07.564Z,0.76
2017-05-08T06:56:35.458Z,1.48
2017-05-08T06:59:02.618Z,1.20
2017-05-08T07:01:29.761Z,1.40
2017-05-08T07:03:56.902Z,1.96
2017-05-08T07:06:24.525Z,1.98
2017-05-08T07:08:51.687Z,3.60
2017-05-08T07:11:18.818Z,2.20
2017-05-08T07:13:46.365Z,1.90
2017-05-08T07:16:13.543Z,2.54
2017-05-08T07:18:41.434Z,1.50
2017-05-08T07:21:09.092Z,1.24
2017-05-08T07:23:36.473Z,1.94
2017-05-08T07:26:03.637Z,1.88
2017-05-08T07:28:31.313Z,1.80
2017-05-08T07:30:58.465Z,1.12
2017-05-08T07:33:25.606Z,1.10
2017-05-08T07:35:53.174Z,1.38
2017-05-08T07:38:20.320Z,0.96
2017-05-08T07:40:47.495Z,0.86
2017-05-08T07:43:15.738Z,0.60
2017-05-08T07:45:42.878Z,0.70
2017-05-08T07:48:10.044Z,0.60
2017-05-08T07:50:37.565Z,0.60
2017-05-08T07:53:11.157Z,0.74
2017-05-08T07:55:38.789Z,0.50
2017-05-08T07:58:08.276Z,0.50
2017-05-08T08:00:35.413Z,0.50
2017-05-08T08:03:02.867Z,0.52
2017-05-08T08:05:29.998Z,0.56
2017-05-08T08:07:57.143Z,0.42
2017-05-08T08:10:24.622Z,0.50
2017-05-08T08:12:51.772Z,0.30
2017-05-08T08:15:20.874Z,0.36
2017-05-08T08:17:48.321Z,0.48
2017-05-08T08:20:15.465Z,0.34
2017-05-08T08:22:42.605Z,0.34
2017-05-08T08:25:11.000Z,0.20
2017-05-08T08:27:38.146Z,0.30
2017-05-08T08:30:05.281Z,0.48
2017-05-08T08:32:32.750Z,0.20
2017-05-08T08:34:59.882Z,0.34
2017-05-08T08:37:27.018Z,0.36
2017-05-08T08:39:54.497Z,0.32
2017-05-08T08:42:21.634Z,0.40
2017-05-08T08:44:49.815Z,0.40
2017-05-08T08:47:17.598Z,0.40
2017-05-08T08:49:44.730Z,0.48
2017-05-08T08:52:12.861Z,0.38
2017-05-08T08:54:41.769Z,0.38
2017-05-08T08:57:08.897Z,0.36
2017-05-08T08:59:36.770Z,0.52
2017-05-08T09:02:04.281Z,0.60
2017-05-08T09:04:31.419Z,0.62
2017-05-08T09:06:58.565Z,0.58
2017-05-08T09:09:26.030Z,0.40
2017-05-08T09:11:53.165Z,0.60
2017-05-08T09:14:20.298Z,0.50
2017-05-08T09:16:47.745Z,0.60
2017-05-08T09:19:14.886Z,0.50
2017-05-08T09:21:43.039Z,0.42
2017-05-08T09:24:11.325Z,0.50
2017-05-08T09:29:19.304Z,0.60
2017-05-08T09:31:46.445Z,0.66
2017-05-08T09:34:13.631Z,0.72
2017-05-08T09:36:41.882Z,0.60
2017-05-08T09:39:09.041Z,0.70
2017-05-08T09:41:36.173Z,0.44
2017-05-08T09:44:03.624Z,0.68
2017-05-08T09:46:30.766Z,0.42
2017-05-08T09:48:57.905Z,0.50
2017-05-08T09:51:25.376Z,0.48
2017-05-08T09:53:52.514Z,0.60
2017-05-08T09:56:19.646Z,0.40
2017-05-08T09:58:47.172Z,0.32
2017-05-08T10:01:14.310Z,0.30
2017-05-08T10:03:41.668Z,0.54
2017-05-08T10:06:10.173Z,1.24
2017-05-08T10:08:38.045Z,0.30
2017-05-08T10:11:05.181Z,0.34
2017-05-08T10:13:32.700Z,0.30
2017-05-08T10:15:59.849Z,0.30
2017-05-08T10:18:26.987Z,0.40
2017-05-08T10:20:54.430Z,0.40
2017-05-08T10:23:21.582Z,0.36
2017-05-08T10:25:48.734Z,0.40
2017-05-08T10:28:16.138Z,0.38
2017-05-08T10:30:44.017Z,0.36
2017-05-08T10:33:11.175Z,0.98
2017-05-08T10:35:39.407Z,0.30
2017-05-08T10:38:06.569Z,0.50
2017-05-08T10:40:33.938Z,0.60
2017-05-08T10:43:02.390Z,0.58
2017-05-08T10:45:29.527Z,0.44
2017-05-08T10:47:56.678Z,0.50
2017-05-08T10:50:24.250Z,0.56
2017-05-08T10:52:51.374Z,0.70
2017-05-08T10:55:18.505Z,0.60
2017-05-08T10:57:45.991Z,0.48
2017-05-08T11:00:18.235Z,0.50
2017-05-08T11:02:45.414Z,0.62
2017-05-08T11:05:12.870Z,0.54
2017-05-08T11:07:40.015Z,0.78
2017-05-08T11:10:07.177Z,0.68
2017-05-08T11:12:35.559Z,0.82
2017-05-08T11:15:02.753Z,0.84
2017-05-08T11:17:29.899Z,0.92
2017-05-08T11:20:00.130Z,0.78
2017-05-08T11:22:28.358Z,0.88
2017-05-08T11:25:02.721Z,0.80
2017-05-08T11:30:36.657Z,1.00
2017-05-08T11:33:03.794Z,0.98
2017-05-08T11:35:31.251Z,0.96
2017-05-08T11:37:58.793Z,1.06
2017-05-08T11:40:25.975Z,0.72
2017-05-08T11:42:53.123Z,1.16
2017-05-08T11:45:20.710Z,1.44
2017-05-08T11:47:47.860Z,0.92
2017-05-08T11:50:15.011Z,1.32
2017-05-08T11:52:43.480Z,1.02
2017-05-08T11:55:10.627Z,1.46
2017-05-08T11:57:37.775Z,1.24
2017-05-08T12:00:05.243Z,1.64
2017-05-08T12:02:33.393Z,1.46
2017-05-08T12:05:00.521Z,1.12
2017-05-08T12:07:28.919Z,1.32
2017-05-08T12:09:56.050Z,1.52
2017-05-08T12:12:23.186Z,2.12
2017-05-08T12:14:51.415Z,2.96
2017-05-08T12:17:18.545Z,4.42
2017-05-08T12:19:45.682Z,4.36
2017-05-08T12:22:13.165Z,3.44
2017-05-08T12:24:40.331Z,3.52
2017-05-08T12:27:07.530Z,3.00
2017-05-08T12:29:35.030Z,2.86
2017-05-08T12:32:02.157Z,4.18
2017-05-08T12:34:29.292Z,4.70
2017-05-08T12:36:57.609Z,7.32
2017-05-08T12:39:24.793Z,8.98
2017-05-08T12:41:52.677Z,9.50
2017-05-08T12:44:20.174Z,9.68
2017-05-08T12:46:47.393Z,11.04
2017-05-08T12:49:14.589Z,11.34
2017-05-08T12:51:42.045Z,12.58
2017-05-08T12:54:09.190Z,12.74
2017-05-08T12:56:36.371Z,15.80
2017-05-08T12:59:05.541Z,15.44
2017-05-08T13:01:32.682Z,17.86
2017-05-08T13:03:59.813Z,16.66
2017-05-08T13:06:27.263Z,15.92
2017-05-08T13:08:54.418Z,15.92
2017-05-08T13:11:22.581Z,18.14
2017-05-08T13:13:50.057Z,16.42
2017-05-08T13:16:17.217Z,18.60
2017-05-08T13:18:44.341Z,18.40
2017-05-08T13:21:12.481Z,18.74
2017-05-08T13:23:39.638Z,20.78
2017-05-08T13:26:06.797Z,17.70
2017-05-08T13:28:34.285Z,18.86
2017-05-08T13:31:01.425Z,19.70
2017-05-08T13:33:28.812Z,23.18
2017-05-08T13:35:58.034Z,19.28
2017-05-08T13:38:25.913Z,20.66
2017-05-08T13:40:53.061Z,22.38
2017-05-08T13:43:21.389Z,17.58
2017-05-08T13:45:48.554Z,18.40
2017-05-08T13:48:15.716Z,18.06
2017-05-08T13:50:44.978Z,17.14
2017-05-08T13:53:13.121Z,19.54
2017-05-08T13:55:40.269Z,18.48
2017-05-08T13:58:08.414Z,18.42
2017-05-08T14:00:36.289Z,17.84
2017-05-08T14:03:03.433Z,18.72
2017-05-08T14:05:31.969Z,19.08
2017-05-08T14:07:59.110Z,17.82
2017-05-08T14:10:26.243Z,16.54
2017-05-08T14:12:53.725Z,16.90
2017-05-08T14:15:20.874Z,17.06
2017-05-08T14:17:48.013Z,16.54
2017-05-08T14:20:15.485Z,15.52
2017-05-08T14:22:42.621Z,14.16
2017-05-08T14:25:10.537Z,14.30
2017-05-08T14:27:37.987Z,15.00
2017-05-08T14:30:05.122Z,14.12
2017-05-08T14:32:32.257Z,16.12
2017-05-08T14:34:59.685Z,16.16
2017-05-08T14:37:26.830Z,16.50
2017-05-08T14:39:53.973Z,16.38
2017-05-08T14:42:21.454Z,16.64
2017-05-08T14:44:48.596Z,14.32
2017-05-08T14:47:16.739Z,13.60
2017-05-08T14:49:44.239Z,13.62
2017-05-08T14:52:12.404Z,13.66
2017-05-08T14:54:39.537Z,12.78
2017-05-08T14:57:06.958Z,13.00
2017-05-08T14:59:34.833Z,15.12
2017-05-08T15:02:01.985Z,12.70
2017-05-08T15:04:29.490Z,13.54
2017-05-08T15:06:56.621Z,11.94
2017-05-08T15:09:23.758Z,12.10
2017-05-08T15:11:51.236Z,10.30
2017-05-08T15:14:18.373Z,12.12
2017-05-08T15:16:46.545Z,12.50
2017-05-08T15:19:15.725Z,9.14
2017-05-08T15:21:43.074Z,11.64
2017-05-08T15:24:10.228Z,10.76
2017-05-08T15:26:37.717Z,9.14
2017-05-08T15:29:04.901Z,10.24
2017-05-08T15:31:32.036Z,10.42
2017-05-08T15:33:59.466Z,10.30
2017-05-08T15:36:26.593Z,9.80
2017-05-08T15:38:53.729Z,11.32
2017-05-08T15:41:21.229Z,11.04
2017-05-08T15:43:48.365Z,10.06
2017-05-08T15:46:15.514Z,10.34
2017-05-08T15:48:43.371Z,11.04
2017-05-08T15:51:10.549Z,10.94
2017-05-08T15:53:37.673Z,11.78
2017-05-08T15:56:07.206Z,11.62
2017-05-08T15:58:34.382Z,11.44
2017-05-08T16:01:01.538Z,13.34
2017-05-08T16:03:29.797Z,11.92
2017-05-08T16:05:56.959Z,12.04
2017-05-08T16:08:24.854Z,11.64
2017-05-08T16:10:53.249Z,12.70
2017-05-08T16:13:20.394Z,12.90
2017-05-08T16:15:47.538Z,14.76
2017-05-08T16:18:15.033Z,14.36
2017-05-08T16:20:42.186Z,14.36
2017-05-08T16:23:10.502Z,14.80
2017-05-08T16:25:38.733Z,13.76
2017-05-08T16:28:05.870Z,14.66
2017-05-08T16:30:33.013Z,14.98
2017-05-08T16:33:01.423Z,15.86
2017-05-08T16:35:28.562Z,15.28
2017-05-08T16:37:55.705Z,15.66
2017-05-08T16:40:23.992Z,15.42
2017-05-08T16:42:51.126Z,16.42
2017-05-08T16:45:18.277Z,16.58
2017-05-08T16:47:45.737Z,18.20
2017-05-08T16:50:12.886Z,18.06
2017-05-08T16:52:41.039Z,16.78
2017-05-08T16:55:08.457Z,16.18
2017-05-08T16:57:37.127Z,18.02
2017-05-08T17:00:06.657Z,17.66
2017-05-08T17:05:12.975Z,16.08
2017-05-08T17:07:40.408Z,17.68
2017-05-08T17:10:07.534Z,15.90
2017-05-08T17:12:36.062Z,16.08
2017-05-08T17:15:03.209Z,15.34
2017-05-08T17:17:31.397Z,14.64
2017-05-08T17:19:59.874Z,13.98
2017-05-08T17:22:27.010Z,16.26
2017-05-08T17:24:54.152Z,14.52
2017-05-08T17:27:21.579Z,15.92
2017-05-08T17:29:48.761Z,13.36
2017-05-08T17:32:15.908Z,14.16
2017-05-08T17:34:43.514Z,13.04
2017-05-08T17:37:11.418Z,13.50
2017-05-08T17:39:38.560Z,14.98
2017-05-08T17:42:07.090Z,13.38
2017-05-08T17:44:35.011Z,14.36
2017-05-08T17:47:02.149Z,12.70
2017-05-08T17:49:29.654Z,11.98
2017-05-08T17:51:56.809Z,11.92
2017-05-08T17:54:23.992Z,11.25
2017-05-08T17:56:51.882Z,12.38
2017-05-08T17:59:19.031Z,10.68
2017-05-08T18:01:47.401Z,10.92
2017-05-08T18:04:14.545Z,10.28
2017-05-08T18:06:43.463Z,11.56
2017-05-08T18:09:10.606Z,10.38
2017-05-08T18:11:37.766Z,11.65
2017-05-08T18:14:05.253Z,12.22
2017-05-08T18:16:32.401Z,11.84
2017-05-08T18:18:59.566Z,11.44
2017-05-08T18:21:26.705Z,12.88
2017-05-08T18:23:53.862Z,14.02
2017-05-08T18:26:21.765Z,14.00
2017-05-08T18:28:48.928Z,16.48
2017-05-08T18:31:16.077Z,14.44
2017-05-08T18:33:43.237Z,13.60
2017-05-08T18:36:11.640Z,15.92
2017-05-08T18:38:38.788Z,15.48
2017-05-08T18:41:05.970Z,15.85
2017-05-08T18:43:33.857Z,15.20
2017-05-08T18:46:01.068Z,15.50
2017-05-08T18:48:28.240Z,17.30
2017-05-08T18:50:56.121Z,16.48
2017-05-08T18:53:23.278Z,15.52
2017-05-08T18:55:53.489Z,14.26
2017-05-08T18:58:21.742Z,16.48
2017-05-08T19:00:48.882Z,19.76
2017-05-08T19:03:16.025Z,20.74
2017-05-08T19:05:43.347Z,17.30
2017-05-08T19:08:12.375Z,20.06
2017-05-08T19:10:40.563Z,21.94
2017-05-08T19:13:07.762Z,23.58
2017-05-08T19:15:35.906Z,20.12
2017-05-08T19:18:03.353Z,20.20
2017-05-08T19:20:30.530Z,20.00
2017-05-08T19:22:59.680Z,19.04
2017-05-08T19:25:27.235Z,22.66
2017-05-08T19:27:54.374Z,24.42
2017-05-08T19:30:22.750Z,24.36
2017-05-08T19:32:50.668Z,25.20
2017-05-08T19:35:17.858Z,26.14
2017-05-08T19:37:46.337Z,25.86
2017-05-08T19:40:13.554Z,24.82
2017-05-08T19:42:40.943Z,24.40
2017-05-08T19:45:09.465Z,25.70
2017-05-08T19:47:40.106Z,26.60
2017-05-08T19:50:16.199Z,25.54
2017-05-08T19:52:43.355Z,27.66
2017-05-08T19:55:10.495Z,25.96
2017-05-08T19:57:37.962Z,25.30
2017-05-08T20:00:05.101Z,24.10
2017-05-08T20:02:32.246Z,27.98
2017-05-08T20:04:59.734Z,26.50
2017-05-08T20:07:27.914Z,29.18
2017-05-08T20:09:55.061Z,26.18
2017-05-08T20:12:22.505Z,26.34
2017-05-08T20:14:49.662Z,27.37
2017-05-08T20:17:16.810Z,29.43
2017-05-08T20:19:45.151Z,36.60
2017-05-08T20:22:12.301Z,29.08
2017-05-08T20:24:42.378Z,26.73
2017-05-08T20:27:11.090Z,27.24
2017-05-08T20:29:38.374Z,27.06
2017-05-08T20:32:05.521Z,26.44
2017-05-08T20:34:33.001Z,25.22
2017-05-08T20:37:00.131Z,28.84
2017-05-08T20:39:27.289Z,27.82
2017-05-08T20:41:54.745Z,28.95
2017-05-08T20:44:21.886Z,26.23
2017-05-08T20:46:49.062Z,26.97
2017-05-08T20:49:16.602Z,28.30
2017-05-08T20:51:43.750Z,26.23
2017-05-08T20:54:10.893Z,28.83
2017-05-08T20:56:38.358Z,27.80
2017-05-08T20:59:05.507Z,28.93
2017-05-08T21:01:32.646Z,31.07
2017-05-08T21:04:01.046Z,26.76
2017-05-08T21:06:28.185Z,26.73
2017-05-08T21:08:55.353Z,25.60
2017-05-08T21:11:22.797Z,24.54
2017-05-08T21:13:49.943Z,25.02
2017-05-08T21:16:17.133Z,24.07
2017-05-08T21:18:44.655Z,25.92
2017-05-08T21:21:11.818Z,26.07
2017-05-08T21:23:39.724Z,25.22
2017-05-08T21:26:08.152Z,22.88
2017-05-08T21:28:35.286Z,24.72
2017-05-08T21:31:02.446Z,23.92
2017-05-08T21:33:29.900Z,24.48
2017-05-08T21:35:57.038Z,22.84
2017-05-08T21:38:24.181Z,22.96
2017-05-08T21:40:51.649Z,24.93
2017-05-08T21:43:18.790Z,24.68
2017-05-08T21:45:45.921Z,24.13
2017-05-08T21:48:13.406Z,26.35
2017-05-08T21:50:40.538Z,25.17
2017-05-08T21:53:09.713Z,24.00
2017-05-08T21:55:37.377Z,23.83
2017-05-08T21:58:04.565Z,22.98
2017-05-08T22:00:31.702Z,25.87
2017-05-08T22:02:59.173Z,23.38
2017-05-08T22:05:26.333Z,24.30
2017-05-08T22:07:54.229Z,21.88
2017-05-08T22:10:23.201Z,24.03
2017-05-08T22:12:50.358Z,24.03
2017-05-08T22:15:18.291Z,26.38
2017-05-08T22:17:45.761Z,25.72
2017-05-08T22:20:12.913Z,27.93
2017-05-08T22:22:40.062Z,26.35
2017-05-08T22:25:07.507Z,23.73
2017-05-08T22:27:34.645Z,22.95
2017-05-08T22:30:01.815Z,23.55
2017-05-08T22:32:30.101Z,24.60
2017-05-08T22:34:57.248Z,22.58
2017-05-08T22:37:24.402Z,23.00
2017-05-08T22:39:51.834Z,22.48
2017-05-08T22:42:18.989Z,18.90
2017-05-08T22:44:46.138Z,21.63
2017-05-08T22:47:14.613Z,21.13
2017-05-08T22:49:41.773Z,22.08
2017-05-08T22:52:08.914Z,21.30
2017-05-08T22:54:37.083Z,21.22
2017-05-08T22:57:04.242Z,22.32
2017-05-08T22:59:31.391Z,22.35
2017-05-08T23:01:58.837Z,23.20
2017-05-08T23:04:25.979Z,21.38
2017-05-08T23:06:53.118Z,19.63
2017-05-08T23:09:20.619Z,20.78
2017-05-08T23:11:48.510Z,20.75
2017-05-08T23:14:15.654Z,22.77
2017-05-08T23:16:43.897Z,20.70
2017-05-08T23:19:11.092Z,18.70
2017-05-08T23:21:38.242Z,21.43
2017-05-08T23:24:06.536Z,22.08
2017-05-08T23:26:33.905Z,21.60
2017-05-08T23:29:01.523Z,21.98
2017-05-08T23:31:29.050Z,18.77
2017-05-08T23:33:57.189Z,20.12
2017-05-08T23:36:24.325Z,22.58
2017-05-08T23:38:51.837Z,18.70
2017-05-08T23:41:18.975Z,22.02
2017-05-08T23:43:46.109Z,19.40
2017-05-08T23:46:14.382Z,19.32
2017-05-08T23:48:41.542Z,20.87
2017-05-08T23:51:08.697Z,21.63
2017-05-08T23:53:37.270Z,22.32
2017-05-08T23:56:04.433Z,19.37
2017-05-08T23:58:31.612Z,20.42
